Time;durP1;ratioP1;P1;durP2;ratioP2;P2;SDS_P1;SDS_P2;PMS_P1;PMS_P2;Temp;Humidity;BMP_temperature;BMP_pressure;BME280_temperature;BME280_humidity;BME280_pressure;Samples;Min_cycle;Max_cycle;Signal;HPM_P1;HPM_P2
2024/03/28 00:01:00;;;;;;;;;;;4.40;99.90;;;;;;4942224;28;20279;-65
2024/03/28 00:03:27;;;;;;;;;;;4.40;99.90;;;;;;4955779;28;19933;-65
2024/03/28 00:05:57;;;;;;;;;;;4.40;99.90;;;;;;4955339;28;19949;-65
2024/03/28 00:08:26;;;;;;;;;;;4.30;99.90;;;;;;4949666;28;19931;-66
2024/03/28 00:10:52;;;;;;;;;;;4.30;99.90;;;;;;4944992;28;19981;-65
2024/03/28 00:13:19;;;;;;;;;;;4.30;99.90;;;;;;4938924;28;19926;-65
2024/03/28 00:15:44;;;;;;;;;;;4.20;99.90;;;;;;4953418;28;19930;-64
2024/03/28 00:18:11;;;;;;;;;;;4.20;99.90;;;;;;4952782;28;19926;-65
2024/03/28 00:20:37;;;;;;;;;;;4.20;99.90;;;;;;4952531;28;19930;-65
2024/03/28 00:23:03;;;;;;;;;;;4.10;99.90;;;;;;4954018;28;19934;-64
2024/03/28 00:25:29;;;;;;;;;;;4.20;99.90;;;;;;4948456;29;19930;-65
2024/03/28 00:28:00;;;;;;;;;;;4.10;99.90;;;;;;4951034;28;19937;-64
2024/03/28 00:30:26;;;;;;;;;;;4.10;99.90;;;;;;4961327;28;19945;-64
2024/03/28 00:32:52;;;;;;;;;;;4.10;99.90;;;;;;4955485;28;19941;-64
2024/03/28 00:35:17;;;;;;;;;;;4.10;99.90;;;;;;4938925;28;19926;-64
2024/03/28 00:37:43;;;;;;;;;;;4.00;99.90;;;;;;4955339;28;19926;-64
2024/03/28 00:40:10;;;;;;;;;;;4.00;99.90;;;;;;4954705;28;19956;-64
2024/03/28 00:42:36;;;;;;;;;;;4.00;99.90;;;;;;4952046;28;19927;-64
2024/03/28 00:45:02;;;;;;;;;;;4.00;99.90;;;;;;4954676;28;19926;-64
2024/03/28 00:47:28;;;;;;;;;;;3.90;99.90;;;;;;4954713;28;20279;-64
2024/03/28 00:49:54;;;;;;;;;;;3.90;99.90;;;;;;4954145;28;19934;-64
2024/03/28 00:52:20;;;;;;;;;;;3.90;99.90;;;;;;4955328;28;19965;-64
2024/03/28 00:54:48;;;;;;;;;;;3.90;99.90;;;;;;4942577;28;19930;-64
2024/03/28 00:57:14;;;;;;;;;;;3.90;99.90;;;;;;4952261;28;20386;-64
2024/03/28 00:59:40;;;;;;;;;;;3.90;99.90;;;;;;4932096;28;19926;-64
2024/03/28 01:02:06;;;;;;;;;;;3.90;99.90;;;;;;4952853;28;19937;-64
2024/03/28 01:04:32;;;;;;;;;;;3.80;99.90;;;;;;4957312;28;19930;-64
2024/03/28 01:06:57;;;;;;;;;;;3.80;99.90;;;;;;4957638;28;19926;-64
2024/03/28 01:09:23;;;;;;;;;;;3.80;99.90;;;;;;4958644;28;19937;-64
2024/03/28 01:11:49;;;;;;;;;;;3.80;99.90;;;;;;4940782;28;19930;-64
2024/03/28 01:14:15;;;;;;;;;;;3.80;99.90;;;;;;4965143;28;19926;-64
2024/03/28 01:16:41;;;;;;;;;;;3.80;99.90;;;;;;4942988;28;19991;-64
2024/03/28 01:19:07;;;;;;;;;;;3.80;99.90;;;;;;4950100;28;20286;-64
2024/03/28 01:21:33;;;;;;;;;;;3.80;99.90;;;;;;4946929;28;19953;-64
2024/03/28 01:23:59;;;;;;;;;;;3.80;99.90;;;;;;4958739;28;19973;-64
2024/03/28 01:26:25;;;;;;;;;;;3.80;99.90;;;;;;4956754;28;20444;-65
2024/03/28 01:28:51;;;;;;;;;;;3.80;99.90;;;;;;4950558;28;19926;-64
2024/03/28 01:31:17;;;;;;;;;;;3.70;99.90;;;;;;4954339;28;19934;-65
2024/03/28 01:33:43;;;;;;;;;;;3.80;99.90;;;;;;4965181;28;19926;-64
2024/03/28 01:36:08;;;;;;;;;;;3.80;99.90;;;;;;4953878;28;19933;-64
2024/03/28 01:38:34;;;;;;;;;;;3.70;99.90;;;;;;4958522;28;19933;-64
2024/03/28 01:41:00;;;;;;;;;;;3.60;99.90;;;;;;4943228;28;19982;-64
2024/03/28 01:43:26;;;;;;;;;;;3.60;99.90;;;;;;4946113;28;19977;-64
2024/03/28 01:45:52;;;;;;;;;;;3.60;99.90;;;;;;4944845;28;19994;-64
2024/03/28 01:48:18;;;;;;;;;;;3.60;99.90;;;;;;4955296;28;20009;-64
2024/03/28 01:50:44;;;;;;;;;;;3.60;99.90;;;;;;4952806;28;19926;-64
2024/03/28 01:53:10;;;;;;;;;;;3.60;99.90;;;;;;4956889;28;19937;-65
2024/03/28 01:55:37;;;;;;;;;;;3.50;99.90;;;;;;4968707;28;19926;-65
2024/03/28 01:58:07;;;;;;;;;;;3.50;99.90;;;;;;4958411;28;20053;-64
2024/03/28 02:00:33;;;;;;;;;;;3.50;99.90;;;;;;4955531;28;19930;-64
2024/03/28 02:02:59;;;;;;;;;;;3.50;99.90;;;;;;4941984;28;20314;-64
2024/03/28 02:05:25;;;;;;;;;;;3.60;99.90;;;;;;4944538;28;19930;-64
2024/03/28 02:07:51;;;;;;;;;;;3.50;99.90;;;;;;4957890;28;19934;-64
2024/03/28 02:10:17;;;;;;;;;;;3.50;99.90;;;;;;4955433;28;20438;-64
2024/03/28 02:12:43;;;;;;;;;;;3.50;99.90;;;;;;4948177;28;19930;-64
2024/03/28 02:15:10;;;;;;;;;;;3.60;99.90;;;;;;4940842;28;20433;-65
2024/03/28 02:17:46;;;;;;;;;;;3.60;99.90;;;;;;4956065;28;20406;-65
2024/03/28 02:20:11;;;;;;;;;;;3.60;99.90;;;;;;4952409;28;19934;-64
2024/03/28 02:22:38;;;;;;;;;;;3.60;99.90;;;;;;4951027;28;20394;-65
2024/03/28 02:25:07;;;;;;;;;;;3.60;99.90;;;;;;4957076;28;19958;-64
2024/03/28 02:27:34;;;;;;;;;;;3.60;99.90;;;;;;4955675;28;20450;-64
2024/03/28 02:30:00;;;;;;;;;;;3.50;99.90;;;;;;4949144;28;19926;-66
2024/03/28 02:32:26;;;;;;;;;;;3.60;99.90;;;;;;4955368;28;20023;-64
2024/03/28 02:34:52;;;;;;;;;;;3.50;99.90;;;;;;4944261;28;19969;-64
2024/03/28 02:37:18;;;;;;;;;;;3.50;99.90;;;;;;4957455;28;20029;-64
2024/03/28 02:39:46;;;;;;;;;;;3.60;99.90;;;;;;4961888;28;19927;-64
2024/03/28 02:42:12;;;;;;;;;;;3.50;99.90;;;;;;4957022;28;19937;-64
2024/03/28 02:44:37;;;;;;;;;;;3.50;99.90;;;;;;4955525;28;19926;-64
2024/03/28 02:47:03;;;;;;;;;;;3.60;99.90;;;;;;4940406;28;19930;-64
2024/03/28 02:49:29;;;;;;;;;;;3.60;99.90;;;;;;4939997;28;19927;-65
2024/03/28 02:51:55;;;;;;;;;;;3.60;99.90;;;;;;4939451;28;19937;-64
2024/03/28 02:54:21;;;;;;;;;;;3.60;99.90;;;;;;4956234;28;19930;-64
2024/03/28 02:56:50;;;;;;;;;;;3.60;99.90;;;;;;4937558;28;19930;-64
2024/03/28 02:59:16;;;;;;;;;;;3.60;99.90;;;;;;4941962;28;19931;-64
2024/03/28 03:01:42;;;;;;;;;;;3.60;99.90;;;;;;4949027;28;19992;-64
2024/03/28 03:04:08;;;;;;;;;;;3.50;99.90;;;;;;4956487;28;20021;-64
2024/03/28 03:06:34;;;;;;;;;;;3.50;99.90;;;;;;4944197;28;19968;-64
2024/03/28 03:09:00;;;;;;;;;;;3.60;99.90;;;;;;4955514;28;19937;-64
2024/03/28 03:11:26;;;;;;;;;;;3.50;99.90;;;;;;4955824;28;19926;-64
2024/03/28 03:13:52;;;;;;;;;;;3.50;99.90;;;;;;4954750;28;19927;-64
2024/03/28 03:16:18;;;;;;;;;;;3.50;99.90;;;;;;4956393;28;20341;-64
2024/03/28 03:18:44;;;;;;;;;;;3.50;99.90;;;;;;4956072;28;19934;-64
2024/03/28 03:21:12;;;;;;;;;;;3.40;99.90;;;;;;4956595;28;19930;-65
2024/03/28 03:23:45;;;;;;;;;;;3.50;99.90;;;;;;4945221;28;19969;-64
2024/03/28 03:26:12;;;;;;;;;;;3.40;99.90;;;;;;4956023;28;19984;-64
2024/03/28 03:36:52;;;;;;;;;;;3.40;99.90;;;;;;4946600;28;19930;-65
2024/03/28 03:39:18;;;;;;;;;;;3.30;99.90;;;;;;4950149;28;19926;-64
2024/03/28 03:41:44;;;;;;;;;;;3.30;99.90;;;;;;4956151;28;19931;-64
2024/03/28 03:44:10;;;;;;;;;;;3.30;99.90;;;;;;4948345;28;19969;-64
2024/03/28 03:46:36;;;;;;;;;;;3.20;99.90;;;;;;4954813;28;19926;-64
2024/03/28 03:49:02;;;;;;;;;;;3.20;99.90;;;;;;4955267;28;20015;-64
2024/03/28 03:51:28;;;;;;;;;;;3.30;99.90;;;;;;4953272;28;20280;-64
2024/03/28 03:53:54;;;;;;;;;;;3.30;99.90;;;;;;4957631;28;19957;-64
2024/03/28 03:56:20;;;;;;;;;;;3.30;99.90;;;;;;4962045;28;19926;-64
2024/03/28 03:58:47;;;;;;;;;;;3.40;99.90;;;;;;4943463;28;19981;-64
2024/03/28 04:01:12;;;;;;;;;;;3.40;99.90;;;;;;4938006;28;19985;-64
2024/03/28 04:03:38;;;;;;;;;;;3.30;99.90;;;;;;4937796;28;19926;-65
2024/03/28 04:06:05;;;;;;;;;;;3.30;99.90;;;;;;4953480;28;19931;-64
2024/03/28 04:08:31;;;;;;;;;;;3.30;99.90;;;;;;4954666;28;19934;-64
2024/03/28 04:10:57;;;;;;;;;;;3.30;99.90;;;;;;4955024;28;19930;-64
2024/03/28 04:13:23;;;;;;;;;;;3.20;99.90;;;;;;4948894;28;19937;-64
2024/03/28 04:15:49;;;;;;;;;;;3.20;99.90;;;;;;4943997;28;19927;-64
2024/03/28 04:18:16;;;;;;;;;;;3.20;99.90;;;;;;4947026;28;19926;-64
2024/03/28 04:20:42;;;;;;;;;;;3.00;99.90;;;;;;4955705;28;19934;-65
2024/03/28 04:23:08;;;;;;;;;;;2.90;99.90;;;;;;4955141;28;19991;-64
2024/03/28 04:25:34;;;;;;;;;;;2.80;99.90;;;;;;4948549;28;19934;-65
2024/03/28 04:28:00;;;;;;;;;;;2.80;99.90;;;;;;4947347;28;19937;-65
2024/03/28 04:30:30;;;;;;;;;;;2.70;99.90;;;;;;4945645;28;19986;-65
2024/03/28 04:32:56;;;;;;;;;;;2.70;99.90;;;;;;4948265;28;20395;-64
2024/03/28 04:35:25;;;;;;;;;;;2.70;99.90;;;;;;4955090;28;19949;-64
2024/03/28 04:37:51;;;;;;;;;;;2.70;99.90;;;;;;4952247;28;19952;-64
2024/03/28 04:40:18;;;;;;;;;;;2.60;99.90;;;;;;4947448;28;19926;-64
2024/03/28 04:42:50;;;;;;;;;;;2.60;99.90;;;;;;4957249;28;20493;-64
2024/03/28 04:45:17;;;;;;;;;;;2.70;99.90;;;;;;4946837;28;19926;-64
2024/03/28 04:47:49;;;;;;;;;;;2.70;99.90;;;;;;4946122;28;19927;-64
2024/03/28 04:50:15;;;;;;;;;;;2.70;99.90;;;;;;4958758;28;19937;-64
2024/03/28 04:52:41;;;;;;;;;;;2.70;99.90;;;;;;4959434;28;19934;-64
2024/03/28 04:55:07;;;;;;;;;;;2.60;99.90;;;;;;4941192;28;19926;-64
2024/03/28 04:57:33;;;;;;;;;;;2.60;99.90;;;;;;4956853;28;19937;-64
2024/03/28 05:00:00;;;;;;;;;;;2.60;99.90;;;;;;4940692;28;20275;-64
2024/03/28 05:02:26;;;;;;;;;;;2.60;99.90;;;;;;4941568;28;19957;-64
2024/03/28 05:04:52;;;;;;;;;;;2.50;99.90;;;;;;4954314;28;19936;-64
2024/03/28 05:07:17;;;;;;;;;;;2.60;99.90;;;;;;4925482;28;20461;-64
2024/03/28 05:09:46;;;;;;;;;;;2.50;99.90;;;;;;4948390;28;20325;-64
2024/03/28 05:12:13;;;;;;;;;;;2.50;99.90;;;;;;4955995;28;19926;-64
2024/03/28 05:14:39;;;;;;;;;;;2.50;99.90;;;;;;4956729;28;19933;-64
2024/03/28 05:17:06;;;;;;;;;;;2.50;99.90;;;;;;4943616;28;19934;-65
2024/03/28 05:19:32;;;;;;;;;;;2.50;99.90;;;;;;4954643;28;19926;-64
2024/03/28 05:21:58;;;;;;;;;;;2.50;99.90;;;;;;4965173;28;19932;-64
2024/03/28 05:24:24;;;;;;;;;;;2.40;99.90;;;;;;4953856;28;20422;-64
2024/03/28 05:26:50;;;;;;;;;;;2.50;99.90;;;;;;4957264;28;19926;-64
2024/03/28 05:29:16;;;;;;;;;;;2.40;99.90;;;;;;4950735;28;20033;-64
2024/03/28 05:31:42;;;;;;;;;;;2.40;99.90;;;;;;4957619;28;19930;-64
2024/03/28 05:34:08;;;;;;;;;;;2.30;99.90;;;;;;4945882;28;19930;-64
2024/03/28 05:36:36;;;;;;;;;;;2.30;99.90;;;;;;4958241;28;19929;-65
2024/03/28 05:39:05;;;;;;;;;;;2.30;99.90;;;;;;4945584;28;19930;-64
2024/03/28 05:41:31;;;;;;;;;;;2.30;99.90;;;;;;4944960;28;19926;-64
2024/03/28 05:43:57;;;;;;;;;;;2.30;99.90;;;;;;4958622;28;19957;-64
2024/03/28 05:46:23;;;;;;;;;;;2.40;99.90;;;;;;4941408;28;19926;-64
2024/03/28 05:48:49;;;;;;;;;;;2.30;99.90;;;;;;4950428;28;19937;-64
2024/03/28 05:51:15;;;;;;;;;;;2.30;99.90;;;;;;4935450;28;19930;-64
2024/03/28 05:53:48;;;;;;;;;;;2.30;99.90;;;;;;4955401;29;20322;-64
2024/03/28 05:56:15;;;;;;;;;;;2.30;99.90;;;;;;4948888;28;19931;-64
2024/03/28 05:58:41;;;;;;;;;;;2.30;99.90;;;;;;4955815;28;19931;-65
2024/03/28 06:01:07;;;;;;;;;;;2.40;99.90;;;;;;4938337;28;20291;-64
2024/03/28 06:03:32;;;;;;;;;;;2.40;99.90;;;;;;4948225;28;19933;-64
2024/03/28 06:05:58;;;;;;;;;;;2.40;99.90;;;;;;4940161;28;20013;-64
2024/03/28 06:08:24;;;;;;;;;;;2.40;99.90;;;;;;4963178;28;19935;-64
2024/03/28 06:10:50;;;;;;;;;;;2.40;99.90;;;;;;4956759;28;19933;-64
2024/03/28 06:13:16;;;;;;;;;;;2.40;99.90;;;;;;4956770;28;20364;-64
2024/03/28 06:15:43;;;;;;;;;;;2.40;99.90;;;;;;4954428;28;19938;-64
2024/03/28 06:18:09;;;;;;;;;;;2.40;99.90;;;;;;4968946;28;20394;-65
2024/03/28 06:20:35;;;;;;;;;;;2.50;99.90;;;;;;4937054;28;19936;-65
2024/03/28 06:23:01;;;;;;;;;;;2.50;99.90;;;;;;4966264;28;19926;-65
2024/03/28 06:25:27;;;;;;;;;;;2.60;99.90;;;;;;4957316;28;19930;-64
2024/03/28 06:27:53;;;;;;;;;;;2.60;99.90;;;;;;4949065;28;19933;-66
2024/03/28 06:30:25;;;;;;;;;;;2.70;99.90;;;;;;4952837;28;19926;-64
2024/03/28 06:32:52;;;;;;;;;;;2.80;99.90;;;;;;4947815;28;19933;-64
2024/03/28 06:35:17;;;;;;;;;;;2.90;99.90;;;;;;4954556;28;19926;-64
2024/03/28 06:37:43;;;;;;;;;;;3.00;99.90;;;;;;4954466;28;19930;-65
2024/03/28 06:40:10;;;;;;;;;;;3.00;99.90;;;;;;4964790;28;19942;-64
2024/03/28 06:42:36;;;;;;;;;;;3.10;99.90;;;;;;4937073;28;20385;-64
2024/03/28 06:45:01;;;;;;;;;;;3.20;99.90;;;;;;4955403;28;19926;-64
2024/03/28 06:47:27;;;;;;;;;;;3.20;99.90;;;;;;4951356;28;19930;-64
2024/03/28 06:49:53;;;;;;;;;;;3.30;99.90;;;;;;4954862;28;19992;-66
2024/03/28 06:52:19;;;;;;;;;;;3.40;99.90;;;;;;4955653;28;19927;-64
2024/03/28 06:54:45;;;;;;;;;;;3.40;99.90;;;;;;4955319;28;19934;-65
2024/03/28 06:57:10;;;;;;;;;;;3.50;99.90;;;;;;4943667;28;19926;-64
2024/03/28 06:59:36;;;;;;;;;;;3.50;99.90;;;;;;4948313;28;19926;-65
2024/03/28 07:02:02;;;;;;;;;;;3.60;99.90;;;;;;4956206;28;19926;-65
2024/03/28 07:04:28;;;;;;;;;;;3.70;99.90;;;;;;4953534;28;19936;-64
2024/03/28 07:06:54;;;;;;;;;;;3.80;99.90;;;;;;4966467;28;19994;-65
2024/03/28 07:09:21;;;;;;;;;;;3.90;99.90;;;;;;4953838;28;20342;-65
2024/03/28 07:11:47;;;;;;;;;;;4.10;99.90;;;;;;4955248;28;20309;-65
2024/03/28 07:14:14;;;;;;;;;;;4.30;99.90;;;;;;4949239;28;19933;-64
2024/03/28 07:16:40;;;;;;;;;;;4.50;99.90;;;;;;4933554;28;19930;-64
2024/03/28 07:19:06;;;;;;;;;;;4.70;99.90;;;;;;4951898;28;19934;-65
2024/03/28 07:21:32;;;;;;;;;;;4.80;99.90;;;;;;4952782;28;20394;-65
2024/03/28 07:23:58;;;;;;;;;;;4.80;99.90;;;;;;4952928;28;19926;-66
2024/03/28 07:26:24;;;;;;;;;;;4.90;99.90;;;;;;4955215;28;19930;-66
2024/03/28 07:28:50;;;;;;;;;;;5.10;99.90;;;;;;4955527;28;19926;-65
2024/03/28 07:31:15;;;;;;;;;;;5.30;99.90;;;;;;4943431;28;19980;-65
2024/03/28 07:33:41;;;;;;;;;;;5.40;99.90;;;;;;4952143;28;20325;-65
2024/03/28 07:36:07;;;;;;;;;;;5.50;99.90;;;;;;4951093;28;19989;-65
2024/03/28 07:38:33;;;;;;;;;;;5.60;99.90;;;;;;4947712;28;19935;-65
2024/03/28 07:40:59;;;;;;;;;;;5.70;99.90;;;;;;4951171;28;19933;-65
2024/03/28 07:43:26;;;;;;;;;;;5.80;99.90;;;;;;4945327;28;20390;-65
2024/03/28 07:45:58;;;;;;;;;;;5.80;99.90;;;;;;4955358;28;19926;-65
2024/03/28 07:48:24;;;;;;;;;;;5.90;99.90;;;;;;4935817;28;20022;-67
2024/03/28 07:50:57;;;;;;;;;;;6.00;99.90;;;;;;4952693;28;19931;-65
2024/03/28 07:53:23;;;;;;;;;;;6.30;99.90;;;;;;4950587;28;19926;-65
2024/03/28 07:55:49;;;;;;;;;;;6.40;99.90;;;;;;4953418;28;19976;-65
2024/03/28 07:58:15;;;;;;;;;;;6.50;99.90;;;;;;4944436;28;19926;-65
2024/03/28 08:00:41;;;;;;;;;;;6.60;99.90;;;;;;4963043;28;19939;-65
2024/03/28 08:03:08;;;;;;;;;;;6.60;99.90;;;;;;4945997;28;19927;-65
2024/03/28 08:05:36;;;;;;;;;;;6.70;99.90;;;;;;4945625;28;19933;-65
2024/03/28 08:08:03;;;;;;;;;;;6.60;99.90;;;;;;4951994;28;19933;-64
2024/03/28 08:10:31;;;;;;;;;;;6.60;99.90;;;;;;4949899;28;19926;-65
2024/03/28 08:12:57;;;;;;;;;;;6.50;99.90;;;;;;4953641;28;19930;-64
2024/03/28 08:15:25;;;;;;;;;;;6.40;99.90;;;;;;4942760;28;19941;-65
2024/03/28 08:17:51;;;;;;;;;;;6.30;99.90;;;;;;4946498;28;20406;-65
2024/03/28 08:20:20;;;;;;;;;;;6.20;99.90;;;;;;4942395;28;20246;-65
2024/03/28 08:22:47;;;;;;;;;;;6.20;99.90;;;;;;4940603;28;20402;-65
2024/03/28 08:25:13;;;;;;;;;;;6.20;99.90;;;;;;4954075;28;19926;-65
2024/03/28 08:27:39;;;;;;;;;;;6.20;99.90;;;;;;4948526;28;19956;-65
2024/03/28 08:30:09;;;;;;;;;;;6.20;99.90;;;;;;4949991;28;20041;-65
2024/03/28 08:32:34;;;;;;;;;;;6.20;99.90;;;;;;4955114;28;19926;-64
2024/03/28 08:35:02;;;;;;;;;;;6.30;99.90;;;;;;4946158;28;20461;-65
2024/03/28 08:37:27;;;;;;;;;;;6.20;99.90;;;;;;4947313;28;19961;-64
2024/03/28 08:39:53;;;;;;;;;;;6.30;99.90;;;;;;4954748;28;19930;-64
2024/03/28 08:42:19;;;;;;;;;;;6.30;99.90;;;;;;4941869;28;19961;-65
2024/03/28 08:44:48;;;;;;;;;;;6.30;99.90;;;;;;4942546;28;20318;-65
2024/03/28 08:47:14;;;;;;;;;;;6.30;99.90;;;;;;4942373;28;19926;-65
2024/03/28 08:49:40;;;;;;;;;;;6.30;99.90;;;;;;4949757;28;20585;-65
2024/03/28 08:52:07;;;;;;;;;;;6.30;99.90;;;;;;4955268;28;19934;-65
2024/03/28 08:54:32;;;;;;;;;;;6.30;99.90;;;;;;4947322;28;19933;-65
2024/03/28 08:56:58;;;;;;;;;;;6.30;99.90;;;;;;4953888;28;19926;-64
2024/03/28 08:59:24;;;;;;;;;;;6.40;99.90;;;;;;4947335;28;19951;-65
2024/03/28 09:01:50;;;;;;;;;;;6.40;99.90;;;;;;4937752;28;20390;-64
2024/03/28 09:04:19;;;;;;;;;;;6.50;99.90;;;;;;4952249;28;19980;-64
2024/03/28 09:06:45;;;;;;;;;;;6.40;99.90;;;;;;4953889;28;19930;-64
2024/03/28 09:09:11;;;;;;;;;;;6.40;99.90;;;;;;4941544;28;20030;-65
2024/03/28 09:11:37;;;;;;;;;;;6.50;99.90;;;;;;4937239;28;19930;-65
2024/03/28 09:14:03;;;;;;;;;;;6.60;99.90;;;;;;4951491;28;20485;-65
2024/03/28 09:16:30;;;;;;;;;;;6.60;99.90;;;;;;4957977;28;19934;-65
2024/03/28 09:18:55;;;;;;;;;;;6.60;99.90;;;;;;4953013;28;20029;-65
2024/03/28 09:21:21;;;;;;;;;;;6.60;99.90;;;;;;4947641;28;19957;-64
2024/03/28 09:23:48;;;;;;;;;;;6.60;99.90;;;;;;4950566;28;19926;-64
2024/03/28 09:26:13;;;;;;;;;;;6.70;99.90;;;;;;4958801;28;19948;-65
2024/03/28 09:28:39;;;;;;;;;;;6.70;99.90;;;;;;4957901;28;20394;-65
2024/03/28 09:31:05;;;;;;;;;;;6.80;99.90;;;;;;4955611;28;20931;-64
2024/03/28 09:33:31;;;;;;;;;;;6.80;99.90;;;;;;4950712;28;20354;-65
2024/03/28 09:36:00;;;;;;;;;;;6.80;99.90;;;;;;4969468;28;20450;-65
2024/03/28 09:38:26;;;;;;;;;;;6.80;99.90;;;;;;4947141;28;19935;-64
2024/03/28 09:40:52;;;;;;;;;;;6.80;99.90;;;;;;4962736;28;19973;-64
2024/03/28 09:43:18;;;;;;;;;;;6.80;99.90;;;;;;4957699;28;19953;-64
2024/03/28 09:45:44;;;;;;;;;;;6.80;99.90;;;;;;4958135;28;19969;-64
2024/03/28 09:48:16;;;;;;;;;;;6.60;99.90;;;;;;4950302;28;20322;-65
2024/03/28 09:50:42;;;;;;;;;;;6.60;99.90;;;;;;4955863;28;20462;-65
2024/03/28 09:53:09;;;;;;;;;;;6.70;99.90;;;;;;4950351;28;19930;-64
2024/03/28 09:55:37;;;;;;;;;;;6.60;99.90;;;;;;4939936;28;19934;-65
2024/03/28 09:58:03;;;;;;;;;;;6.60;99.90;;;;;;4957737;28;19933;-64
2024/03/28 10:00:29;;;;;;;;;;;6.50;99.90;;;;;;4942983;28;19930;-65
2024/03/28 10:02:59;;;;;;;;;;;6.50;99.90;;;;;;4957394;28;20000;-65
2024/03/28 10:05:26;;;;;;;;;;;6.40;99.90;;;;;;4959556;28;19927;-65
2024/03/28 10:07:52;;;;;;;;;;;6.40;99.90;;;;;;4940733;28;20386;-65
2024/03/28 10:10:19;;;;;;;;;;;6.30;99.90;;;;;;4947591;28;19938;-65
2024/03/28 10:12:54;;;;;;;;;;;6.40;99.90;;;;;;4949556;28;19930;-65
2024/03/28 10:15:20;;;;;;;;;;;6.30;99.90;;;;;;4951180;28;19965;-65
2024/03/28 10:17:58;;;;;;;;;;;6.30;99.90;;;;;;4950547;28;19972;-65
2024/03/28 10:20:24;;;;;;;;;;;6.30;99.90;;;;;;4950208;28;19934;-66
2024/03/28 10:22:52;;;;;;;;;;;6.20;99.90;;;;;;4950336;28;19934;-65
2024/03/28 10:25:19;;;;;;;;;;;6.30;99.90;;;;;;4948160;28;19931;-65
2024/03/28 10:27:45;;;;;;;;;;;6.30;99.90;;;;;;4945057;28;19972;-65
2024/03/28 10:30:18;;;;;;;;;;;6.20;99.90;;;;;;4954124;28;19926;-65
2024/03/28 10:32:44;;;;;;;;;;;6.30;99.90;;;;;;4939432;28;19926;-66
2024/03/28 10:35:11;;;;;;;;;;;6.20;99.90;;;;;;4955929;28;19926;-65
2024/03/28 10:37:37;;;;;;;;;;;6.20;99.90;;;;;;4955936;28;19926;-65
2024/03/28 10:40:04;;;;;;;;;;;6.20;99.90;;;;;;4954860;28;19973;-65
2024/03/28 10:42:29;;;;;;;;;;;6.10;99.90;;;;;;4950710;28;20414;-66
2024/03/28 10:44:59;;;;;;;;;;;6.10;99.90;;;;;;4954572;28;20061;-65
2024/03/28 10:47:29;;;;;;;;;;;6.20;99.90;;;;;;4968557;28;19930;-65
2024/03/28 10:49:58;;;;;;;;;;;6.20;99.90;;;;;;4950834;28;19961;-65
2024/03/28 10:52:35;;;;;;;;;;;6.20;99.90;;;;;;4939367;28;20068;-65
2024/03/28 10:55:04;;;;;;;;;;;6.20;99.90;;;;;;4953513;28;19960;-65
2024/03/28 10:57:30;;;;;;;;;;;6.20;99.90;;;;;;4947409;28;19930;-65
2024/03/28 10:59:58;;;;;;;;;;;6.30;99.90;;;;;;4938904;28;19934;-65
2024/03/28 11:02:27;;;;;;;;;;;6.30;99.90;;;;;;4942052;28;19937;-65
2024/03/28 11:04:54;;;;;;;;;;;6.40;99.90;;;;;;4951543;28;19938;-65
2024/03/28 11:07:23;;;;;;;;;;;6.40;99.90;;;;;;4954930;28;19926;-65
2024/03/28 11:09:49;;;;;;;;;;;6.40;99.90;;;;;;4954739;28;19926;-65
2024/03/28 11:12:15;;;;;;;;;;;6.50;99.90;;;;;;4954141;28;19933;-65
2024/03/28 11:14:52;;;;;;;;;;;6.50;99.90;;;;;;4954512;28;19930;-65
2024/03/28 11:17:18;;;;;;;;;;;6.50;99.90;;;;;;4968864;28;19958;-65
2024/03/28 11:19:45;;;;;;;;;;;6.60;99.90;;;;;;4954693;28;19984;-64
2024/03/28 11:22:11;;;;;;;;;;;6.60;99.90;;;;;;4953533;28;20394;-65
2024/03/28 11:24:37;;;;;;;;;;;6.60;99.90;;;;;;4950635;28;19930;-65
2024/03/28 11:27:03;;;;;;;;;;;6.60;99.90;;;;;;4953110;28;19926;-65
2024/03/28 11:29:30;;;;;;;;;;;6.60;99.90;;;;;;4937652;28;19934;-65
2024/03/28 11:31:59;;;;;;;;;;;6.60;99.90;;;;;;4936553;28;20000;-65
2024/03/28 11:34:29;;;;;;;;;;;6.70;99.90;;;;;;4954030;28;19934;-65
2024/03/28 11:36:57;;;;;;;;;;;6.70;99.90;;;;;;4967206;28;19941;-65
2024/03/28 11:39:24;;;;;;;;;;;6.70;99.90;;;;;;4949707;28;19926;-65
2024/03/28 11:41:50;;;;;;;;;;;6.70;99.90;;;;;;4954542;28;19926;-64
2024/03/28 11:44:20;;;;;;;;;;;6.70;99.90;;;;;;4936897;28;19941;-64
2024/03/28 11:46:46;;;;;;;;;;;6.80;99.90;;;;;;4937685;28;19953;-64
2024/03/28 11:49:19;;;;;;;;;;;6.80;99.90;;;;;;4937443;28;19934;-65
2024/03/28 11:51:45;;;;;;;;;;;6.80;99.90;;;;;;4952587;28;19933;-64
2024/03/28 11:54:16;;;;;;;;;;;6.80;99.90;;;;;;4947621;28;20306;-65
2024/03/28 11:56:43;;;;;;;;;;;6.80;99.90;;;;;;4953667;28;20441;-64
2024/03/28 11:59:19;;;;;;;;;;;6.80;99.90;;;;;;4951025;28;19930;-65
2024/03/28 12:01:46;;;;;;;;;;;6.90;99.90;;;;;;4953973;28;20398;-65
2024/03/28 12:04:20;;;;;;;;;;;7.00;99.90;;;;;;4953765;28;19954;-64
2024/03/28 12:06:46;;;;;;;;;;;7.00;99.90;;;;;;4952669;28;19930;-65
2024/03/28 12:09:12;;;;;;;;;;;7.00;99.90;;;;;;4954344;28;19933;-64
2024/03/28 12:11:38;;;;;;;;;;;6.90;99.90;;;;;;4953885;28;20473;-64
2024/03/28 12:14:03;;;;;;;;;;;6.90;99.90;;;;;;4947170;28;19933;-64
2024/03/28 12:16:29;;;;;;;;;;;6.80;99.90;;;;;;4935887;28;20369;-65
2024/03/28 12:19:03;;;;;;;;;;;6.80;99.90;;;;;;4948640;28;19927;-64
2024/03/28 12:21:28;;;;;;;;;;;6.80;99.90;;;;;;4954147;28;20386;-64
2024/03/28 12:23:55;;;;;;;;;;;6.80;99.90;;;;;;4950014;28;20421;-64
2024/03/28 12:26:22;;;;;;;;;;;6.80;99.90;;;;;;4952693;28;19973;-64
2024/03/28 12:28:47;;;;;;;;;;;6.80;99.90;;;;;;4953418;28;19926;-65
2024/03/28 12:31:20;;;;;;;;;;;6.80;99.90;;;;;;4953393;28;20072;-64
2024/03/28 12:33:46;;;;;;;;;;;6.80;99.90;;;;;;4969359;28;19937;-64
2024/03/28 12:36:15;;;;;;;;;;;6.70;99.90;;;;;;4953431;28;19933;-64
2024/03/28 12:38:44;;;;;;;;;;;6.70;99.90;;;;;;4947000;28;20377;-64
2024/03/28 12:41:17;;;;;;;;;;;6.60;99.90;;;;;;4953016;28;20465;-64
2024/03/28 12:43:52;;;;;;;;;;;6.60;99.90;;;;;;4949162;28;19965;-64
2024/03/28 12:46:18;;;;;;;;;;;6.60;99.90;;;;;;4952846;28;19930;-64
2024/03/28 12:48:44;;;;;;;;;;;6.60;99.90;;;;;;4961296;28;20021;-65
2024/03/28 12:51:10;;;;;;;;;;;6.60;99.90;;;;;;4951720;28;19930;-65
2024/03/28 12:53:36;;;;;;;;;;;6.70;99.90;;;;;;4938697;28;20424;-64
2024/03/28 12:56:03;;;;;;;;;;;6.70;99.90;;;;;;4952766;28;19933;-64
2024/03/28 12:58:29;;;;;;;;;;;6.70;99.90;;;;;;4956577;28;19934;-64
2024/03/28 13:00:55;;;;;;;;;;;6.80;99.90;;;;;;4957679;28;20004;-64
2024/03/28 13:03:21;;;;;;;;;;;6.80;99.90;;;;;;4957916;28;20398;-64
2024/03/28 13:05:51;;;;;;;;;;;6.90;99.90;;;;;;4941099;28;19929;-65
2024/03/28 13:08:17;;;;;;;;;;;7.00;99.90;;;;;;4955706;28;20302;-64
2024/03/28 13:10:43;;;;;;;;;;;7.00;99.90;;;;;;4961871;28;20418;-64
2024/03/28 13:13:09;;;;;;;;;;;7.10;99.90;;;;;;4958768;28;20349;-65
2024/03/28 13:15:36;;;;;;;;;;;7.10;99.90;;;;;;4948560;28;19926;-64
2024/03/28 13:18:02;;;;;;;;;;;7.10;99.90;;;;;;4954829;28;19965;-64
2024/03/28 13:20:28;;;;;;;;;;;7.10;99.90;;;;;;4941204;28;19932;-64
2024/03/28 13:22:54;;;;;;;;;;;7.10;99.90;;;;;;4957738;28;20511;-64
2024/03/28 13:25:20;;;;;;;;;;;7.00;99.90;;;;;;4958045;28;19926;-64
2024/03/28 13:27:46;;;;;;;;;;;7.00;99.90;;;;;;4958857;28;19934;-64
2024/03/28 13:30:12;;;;;;;;;;;7.00;99.90;;;;;;4956247;28;19948;-64
2024/03/28 13:32:39;;;;;;;;;;;7.10;99.90;;;;;;4956660;28;19931;-64
2024/03/28 13:35:05;;;;;;;;;;;7.10;99.90;;;;;;4962882;28;19938;-64
2024/03/28 13:37:31;;;;;;;;;;;7.20;99.90;;;;;;4955046;28;19934;-64
2024/03/28 13:39:57;;;;;;;;;;;7.10;99.90;;;;;;4948583;28;19926;-64
2024/03/28 13:42:24;;;;;;;;;;;7.20;99.90;;;;;;4949607;28;19926;-64
2024/03/28 13:44:52;;;;;;;;;;;7.20;99.90;;;;;;4956929;28;19954;-64
2024/03/28 13:47:18;;;;;;;;;;;7.30;99.90;;;;;;4956021;28;19926;-64
2024/03/28 13:49:44;;;;;;;;;;;7.30;99.90;;;;;;4939300;28;19930;-64
2024/03/28 13:52:10;;;;;;;;;;;7.30;99.90;;;;;;4951417;28;19976;-64
2024/03/28 13:54:35;;;;;;;;;;;7.40;99.90;;;;;;4958073;28;19926;-64
2024/03/28 13:57:01;;;;;;;;;;;7.40;99.90;;;;;;4944802;28;20382;-64
2024/03/28 13:59:27;;;;;;;;;;;7.40;99.90;;;;;;4937972;28;20548;-64
2024/03/28 14:01:53;;;;;;;;;;;7.40;99.90;;;;;;4946988;28;20315;-64
2024/03/28 14:04:19;;;;;;;;;;;7.50;99.90;;;;;;4958163;28;19941;-64
2024/03/28 14:06:46;;;;;;;;;;;7.60;99.90;;;;;;4955729;28;19934;-64
2024/03/28 14:09:12;;;;;;;;;;;7.70;99.90;;;;;;4956554;28;20298;-64
2024/03/28 14:11:40;;;;;;;;;;;7.70;99.90;;;;;;4948833;28;19938;-64
2024/03/28 14:14:06;;;;;;;;;;;7.80;99.90;;;;;;4941699;28;19930;-64
2024/03/28 14:16:32;;;;;;;;;;;7.80;99.90;;;;;;4955007;28;19926;-64
2024/03/28 14:18:58;;;;;;;;;;;7.90;99.90;;;;;;4952911;28;20367;-64
2024/03/28 14:21:25;;;;;;;;;;;8.00;99.90;;;;;;4956335;28;19930;-64
2024/03/28 14:23:51;;;;;;;;;;;8.10;99.90;;;;;;4953345;28;19926;-64
2024/03/28 14:26:17;;;;;;;;;;;8.10;99.90;;;;;;4954942;28;19930;-65
2024/03/28 14:28:43;;;;;;;;;;;8.10;99.90;;;;;;4940857;28;19933;-65
2024/03/28 14:31:09;;;;;;;;;;;8.10;99.90;;;;;;4951876;28;19934;-65
2024/03/28 14:33:35;;;;;;;;;;;8.10;99.90;;;;;;4956799;28;19930;-65
2024/03/28 14:36:05;;;;;;;;;;;8.20;99.90;;;;;;4955489;28;19930;-65